createdAt,value
2018-06-30T00:01:30.649Z,95.50
2018-06-30T00:04:00.612Z,94.90
2018-06-30T00:06:30.142Z,96.00
2018-06-30T00:08:59.786Z,95.10
2018-06-30T00:11:28.932Z,94.10
2018-06-30T00:16:28.249Z,94.30
2018-06-30T00:18:57.928Z,94.90
2018-06-30T00:21:27.481Z,94.20
2018-06-30T00:23:57.069Z,95.00
2018-06-30T00:26:27.573Z,95.20
2018-06-30T00:28:57.097Z,96.00
2018-06-30T00:31:27.527Z,97.10
2018-06-30T00:33:57.229Z,96.80
2018-06-30T00:36:27.086Z,96.50
2018-06-30T00:38:57.411Z,95.80
2018-06-30T00:41:27.992Z,96.20
2018-06-30T00:43:58.339Z,96.20
2018-06-30T00:46:28.298Z,95.30
2018-06-30T00:48:57.877Z,96.70
2018-06-30T00:51:27.399Z,96.70
2018-06-30T00:53:56.766Z,96.60
2018-06-30T00:56:26.520Z,98.30
2018-06-30T00:58:56.071Z,98.20
2018-06-30T01:01:25.906Z,97.20
2018-06-30T01:03:55.730Z,98.50
2018-06-30T01:06:26.094Z,98.70
2018-06-30T01:08:55.807Z,97.70
2018-06-30T01:11:25.432Z,98.00
2018-06-30T01:13:55.640Z,98.30
2018-06-30T01:18:54.589Z,97.60
2018-06-30T01:21:24.357Z,98.00
2018-06-30T01:23:54.169Z,98.10
2018-06-30T01:26:24.552Z,98.60
2018-06-30T01:28:55.279Z,98.40
2018-06-30T01:31:25.254Z,99.90
2018-06-30T01:33:54.730Z,99.10
2018-06-30T01:36:24.859Z,99.50
2018-06-30T01:38:54.747Z,99.30
2018-06-30T01:41:24.477Z,98.20
2018-06-30T01:43:55.960Z,99.90
2018-06-30T01:46:26.307Z,99.20
2018-06-30T01:48:57.135Z,99.90
2018-06-30T01:51:26.888Z,99.30
2018-06-30T01:53:56.590Z,99.90
2018-06-30T01:56:26.676Z,99.90
2018-06-30T01:58:56.581Z,99.80
2018-06-30T02:01:26.111Z,99.90
2018-06-30T02:03:55.922Z,99.90
2018-06-30T02:06:26.226Z,99.20
2018-06-30T02:08:55.800Z,99.00
2018-06-30T02:11:25.836Z,99.90
2018-06-30T02:13:55.340Z,99.90
2018-06-30T02:16:24.888Z,99.30
2018-06-30T02:18:54.708Z,99.90
2018-06-30T02:21:25.805Z,99.90
2018-06-30T02:23:55.865Z,99.90
2018-06-30T02:26:25.233Z,99.90
2018-06-30T02:28:54.848Z,99.90
2018-06-30T02:31:24.727Z,99.90
2018-06-30T02:33:54.355Z,99.90
2018-06-30T02:36:25.426Z,99.90
2018-06-30T02:38:54.746Z,99.90
2018-06-30T02:41:25.091Z,99.90
2018-06-30T02:43:54.562Z,99.90
2018-06-30T02:46:24.585Z,99.90
2018-06-30T02:48:54.934Z,99.90
2018-06-30T02:51:24.937Z,99.90
2018-06-30T02:56:23.564Z,99.90
2018-06-30T02:58:53.136Z,99.90
2018-06-30T03:01:23.346Z,99.90
2018-06-30T03:03:53.178Z,99.90
2018-06-30T03:06:22.971Z,99.90
2018-06-30T03:08:52.854Z,99.90
2018-06-30T03:11:23.199Z,99.90
2018-06-30T03:13:53.075Z,99.90
2018-06-30T03:16:23.390Z,99.90
2018-06-30T03:18:53.637Z,99.90
2018-06-30T03:21:23.343Z,99.90
2018-06-30T03:23:53.111Z,99.50
2018-06-30T03:26:22.692Z,99.90
2018-06-30T03:28:52.663Z,99.90
2018-06-30T03:31:22.491Z,99.90
2018-06-30T03:33:52.398Z,99.90
2018-06-30T03:36:22.506Z,99.90
2018-06-30T03:38:52.781Z,99.90
2018-06-30T03:41:23.105Z,99.90
2018-06-30T03:43:52.970Z,99.60
2018-06-30T03:46:23.028Z,99.90
2018-06-30T03:48:52.709Z,99.90
2018-06-30T03:51:22.757Z,99.90
2018-06-30T03:53:52.089Z,99.60
2018-06-30T03:56:21.388Z,99.90
2018-06-30T03:58:51.359Z,99.90
2018-06-30T04:01:21.260Z,99.70
2018-06-30T04:03:51.269Z,99.90
2018-06-30T04:06:20.421Z,99.90
2018-06-30T04:08:50.450Z,99.30
2018-06-30T04:11:20.359Z,99.90
2018-06-30T04:13:50.388Z,99.90
2018-06-30T04:16:20.551Z,99.90
2018-06-30T04:18:49.917Z,99.90
2018-06-30T04:21:19.676Z,99.90
2018-06-30T04:23:49.266Z,99.10
2018-06-30T04:26:19.275Z,99.50
2018-06-30T04:28:48.771Z,99.20
2018-06-30T04:31:18.580Z,98.60
2018-06-30T04:33:49.200Z,98.10
2018-06-30T04:36:18.691Z,99.30
2018-06-30T04:38:48.361Z,99.10
2018-06-30T04:41:17.866Z,99.60
2018-06-30T04:43:47.569Z,99.30
2018-06-30T04:46:17.757Z,99.20
2018-06-30T04:48:48.230Z,99.60
2018-06-30T04:51:17.927Z,98.20
2018-06-30T04:53:48.279Z,97.80
2018-06-30T04:56:17.717Z,97.70
2018-06-30T04:58:47.960Z,98.30
2018-06-30T05:01:17.610Z,97.50
2018-06-30T05:03:47.469Z,99.20
2018-06-30T05:06:16.918Z,99.20
2018-06-30T05:08:46.918Z,97.90
2018-06-30T05:11:16.376Z,98.80
2018-06-30T05:13:45.851Z,99.10
2018-06-30T05:16:15.519Z,97.10
2018-06-30T05:18:45.151Z,97.30
2018-06-30T05:21:14.835Z,96.90
2018-06-30T05:23:44.265Z,97.10
2018-06-30T05:26:13.798Z,96.80
2018-06-30T05:28:43.217Z,97.80
2018-06-30T05:31:12.978Z,96.60
2018-06-30T05:33:42.543Z,97.60
2018-06-30T05:36:12.463Z,99.50
2018-06-30T05:38:41.827Z,95.50
2018-06-30T05:41:11.644Z,95.50
2018-06-30T05:43:41.303Z,96.20
2018-06-30T05:46:10.899Z,95.70
2018-06-30T05:48:40.451Z,95.40
2018-06-30T05:51:10.679Z,94.90
2018-06-30T05:53:41.198Z,96.10
2018-06-30T05:56:10.752Z,95.80
2018-06-30T05:58:40.418Z,95.60
2018-06-30T06:01:10.349Z,96.60
2018-06-30T06:03:39.668Z,95.30
2018-06-30T06:06:09.136Z,94.10
2018-06-30T06:11:07.621Z,96.00
2018-06-30T06:13:36.986Z,94.50
2018-06-30T06:16:06.639Z,93.90
2018-06-30T06:21:05.473Z,93.70
2018-06-30T06:23:35.066Z,94.70
2018-06-30T06:26:04.625Z,93.40
2018-06-30T06:28:34.260Z,94.20
2018-06-30T06:31:04.058Z,92.90
2018-06-30T06:33:33.942Z,92.70
2018-06-30T06:36:03.768Z,92.10
2018-06-30T06:38:33.397Z,92.20
2018-06-30T06:41:02.650Z,94.30
2018-06-30T06:43:32.048Z,93.70
2018-06-30T06:46:02.272Z,93.80
2018-06-30T06:48:31.999Z,94.10
2018-06-30T06:51:01.540Z,92.60
2018-06-30T06:56:00.069Z,91.50
2018-06-30T06:58:30.124Z,91.20
2018-06-30T07:00:59.867Z,90.60
2018-06-30T07:03:30.559Z,91.50
2018-06-30T07:06:00.013Z,90.40
2018-06-30T07:08:30.031Z,91.30
2018-06-30T07:10:59.780Z,92.80
2018-06-30T07:13:29.437Z,94.30
2018-06-30T07:15:58.966Z,91.70
2018-06-30T07:18:28.779Z,92.10
2018-06-30T07:20:58.346Z,90.80
2018-06-30T07:23:27.923Z,92.90
2018-06-30T07:25:57.640Z,91.10
2018-06-30T07:28:27.300Z,91.30
2018-06-30T07:30:57.308Z,93.60
2018-06-30T07:33:27.033Z,94.00
2018-06-30T07:35:56.357Z,94.00
2018-06-30T07:38:26.173Z,92.60
2018-06-30T07:40:56.176Z,90.10
2018-06-30T07:43:26.442Z,86.90
2018-06-30T07:48:25.131Z,87.60
2018-06-30T07:50:54.778Z,91.30
2018-06-30T07:53:25.260Z,90.40
2018-06-30T07:55:55.165Z,91.30
2018-06-30T07:58:24.695Z,91.90
2018-06-30T08:00:54.367Z,89.30
2018-06-30T08:03:24.101Z,84.80
2018-06-30T08:05:53.493Z,82.90
2018-06-30T08:08:23.220Z,89.70
2018-06-30T08:10:52.507Z,88.60
2018-06-30T08:13:22.351Z,80.00
2018-06-30T08:15:51.689Z,84.50
2018-06-30T08:18:21.507Z,90.00
2018-06-30T08:20:51.147Z,92.70
2018-06-30T08:23:20.927Z,87.40
2018-06-30T08:25:50.439Z,81.00
2018-06-30T08:28:21.286Z,83.30
2018-06-30T08:30:50.788Z,79.80
2018-06-30T08:33:19.879Z,79.70
2018-06-30T08:35:49.536Z,82.80
2018-06-30T08:38:19.829Z,80.60
2018-06-30T08:40:49.430Z,82.20
2018-06-30T08:43:19.432Z,82.00
2018-06-30T08:45:49.023Z,81.40
2018-06-30T08:48:18.880Z,79.70
2018-06-30T08:50:48.788Z,78.80
2018-06-30T08:53:19.386Z,78.20
2018-06-30T08:55:49.042Z,78.10
2018-06-30T08:58:18.643Z,76.70
2018-06-30T09:00:48.968Z,75.00
2018-06-30T09:03:18.740Z,74.00
2018-06-30T09:05:48.439Z,71.00
2018-06-30T09:08:17.989Z,77.20
2018-06-30T09:10:47.451Z,72.40
2018-06-30T09:13:16.513Z,79.10
2018-06-30T09:15:46.763Z,71.40
2018-06-30T09:18:16.871Z,74.30
2018-06-30T09:20:46.172Z,75.00
2018-06-30T09:23:16.839Z,73.10
2018-06-30T09:25:47.167Z,74.50
2018-06-30T09:28:17.651Z,74.90
2018-06-30T09:30:47.110Z,79.10
2018-06-30T09:33:17.737Z,76.30
2018-06-30T09:35:47.302Z,78.00
2018-06-30T09:38:16.511Z,75.90
2018-06-30T09:40:46.117Z,79.50
2018-06-30T09:43:15.696Z,73.70
2018-06-30T09:45:45.330Z,74.80
2018-06-30T09:48:14.811Z,79.00
2018-06-30T09:50:45.278Z,80.10
2018-06-30T09:53:14.381Z,78.40
2018-06-30T09:55:44.180Z,77.10
2018-06-30T09:58:13.798Z,76.90
2018-06-30T10:00:48.102Z,78.60
2018-06-30T10:03:17.877Z,72.40
2018-06-30T10:05:47.920Z,77.30
2018-06-30T10:08:17.960Z,75.60
2018-06-30T10:10:48.740Z,73.60
2018-06-30T10:13:19.186Z,73.60
2018-06-30T10:15:48.933Z,75.40
2018-06-30T10:18:18.587Z,72.10
2018-06-30T10:20:48.981Z,71.70
2018-06-30T10:23:18.619Z,74.70
2018-06-30T10:25:48.236Z,75.00
2018-06-30T10:28:17.850Z,76.10
2018-06-30T10:30:46.930Z,74.40
2018-06-30T10:33:16.861Z,71.70
2018-06-30T10:35:46.156Z,70.00
2018-06-30T10:38:15.634Z,72.90
2018-06-30T10:40:45.368Z,72.80
2018-06-30T10:43:14.814Z,74.20
2018-06-30T10:45:44.997Z,74.40
2018-06-30T10:48:14.406Z,71.80
2018-06-30T10:50:44.353Z,70.50
2018-06-30T10:53:14.660Z,71.60
2018-06-30T10:55:44.260Z,76.00
2018-06-30T10:58:14.401Z,75.20
2018-06-30T11:00:44.283Z,77.60
2018-06-30T11:03:13.652Z,80.10
2018-06-30T11:05:43.111Z,77.40
2018-06-30T11:08:12.810Z,76.80
2018-06-30T11:10:42.549Z,73.90
2018-06-30T11:13:12.010Z,74.20
2018-06-30T11:15:41.439Z,76.40
2018-06-30T11:18:11.338Z,74.10
2018-06-30T11:20:41.588Z,75.60
2018-06-30T11:23:11.278Z,76.80
2018-06-30T11:25:41.520Z,74.90
2018-06-30T11:28:11.155Z,77.40
2018-06-30T11:30:41.190Z,74.80
2018-06-30T11:33:10.648Z,73.80
2018-06-30T11:35:40.229Z,72.10
2018-06-30T11:38:09.728Z,70.80
2018-06-30T11:40:39.185Z,71.00
2018-06-30T11:43:08.705Z,74.20
2018-06-30T11:45:38.436Z,76.20
2018-06-30T11:48:07.624Z,76.50
2018-06-30T11:50:37.077Z,82.20
2018-06-30T11:53:06.518Z,77.90
2018-06-30T11:55:36.656Z,74.10
2018-06-30T11:58:06.620Z,78.70
2018-06-30T12:00:36.101Z,75.80
2018-06-30T12:03:05.719Z,75.20
2018-06-30T12:05:35.208Z,74.00
2018-06-30T12:08:04.628Z,71.00
2018-06-30T12:10:34.650Z,70.80
2018-06-30T12:13:04.168Z,69.80
2018-06-30T12:15:34.685Z,67.20
2018-06-30T12:18:04.410Z,65.40
2018-06-30T12:20:33.956Z,66.10
2018-06-30T12:23:03.694Z,63.60
2018-06-30T12:25:33.119Z,66.10
2018-06-30T12:28:03.686Z,65.00
2018-06-30T12:30:33.475Z,65.40
2018-06-30T12:33:03.570Z,63.80
2018-06-30T12:35:33.141Z,65.90
2018-06-30T12:38:03.118Z,66.30
2018-06-30T12:40:33.436Z,64.50
2018-06-30T12:43:03.150Z,63.50
2018-06-30T12:45:33.342Z,62.70
2018-06-30T12:48:02.845Z,64.00
2018-06-30T12:50:33.580Z,65.60
2018-06-30T12:53:03.278Z,63.80
2018-06-30T12:55:32.489Z,63.40
2018-06-30T12:58:02.000Z,63.60
2018-06-30T13:00:31.449Z,62.30
2018-06-30T13:03:00.970Z,65.10
2018-06-30T13:05:30.991Z,66.50
2018-06-30T13:08:01.178Z,63.60
2018-06-30T13:10:31.580Z,63.20
2018-06-30T13:15:29.970Z,63.50
2018-06-30T13:17:59.569Z,63.20
2018-06-30T13:20:29.357Z,62.40
2018-06-30T13:22:59.087Z,63.20
2018-06-30T13:25:28.979Z,65.70
2018-06-30T13:27:58.865Z,66.00
2018-06-30T13:30:28.418Z,64.20
2018-06-30T13:32:58.059Z,62.90
2018-06-30T13:35:27.364Z,64.20
2018-06-30T13:37:56.829Z,62.60
2018-06-30T13:40:26.219Z,62.40
2018-06-30T13:42:55.859Z,64.10
2018-06-30T13:47:54.680Z,62.70
2018-06-30T13:50:24.183Z,60.60
2018-06-30T13:52:54.069Z,62.20
2018-06-30T13:55:23.559Z,63.20
2018-06-30T13:57:53.546Z,63.00
2018-06-30T14:00:22.927Z,62.50
2018-06-30T14:02:52.721Z,62.50
2018-06-30T14:05:22.040Z,63.60
2018-06-30T14:07:52.000Z,63.60
2018-06-30T14:10:22.992Z,62.20
2018-06-30T14:12:52.621Z,64.20
2018-06-30T14:15:21.959Z,62.70
2018-06-30T14:20:20.807Z,63.30
2018-06-30T14:22:50.371Z,62.90
2018-06-30T14:25:19.706Z,64.30
2018-06-30T14:27:49.343Z,61.70
2018-06-30T14:30:18.957Z,61.50
2018-06-30T14:32:48.419Z,61.00
2018-06-30T14:35:18.083Z,60.60
2018-06-30T14:37:47.852Z,61.60
2018-06-30T14:40:18.021Z,62.20
2018-06-30T14:42:47.571Z,62.10
2018-06-30T14:45:17.309Z,62.30
2018-06-30T14:47:46.837Z,65.20
2018-06-30T14:50:16.395Z,61.00
2018-06-30T14:52:45.888Z,59.80
2018-06-30T14:55:15.244Z,59.80
2018-06-30T14:57:44.392Z,62.40
2018-06-30T15:00:13.898Z,63.50
2018-06-30T15:02:43.519Z,60.00
2018-06-30T15:05:13.809Z,59.40
2018-06-30T15:07:43.294Z,61.40
2018-06-30T15:10:13.398Z,62.80
2018-06-30T15:12:43.004Z,60.10
2018-06-30T15:17:41.738Z,62.40
2018-06-30T15:20:11.540Z,62.60
2018-06-30T15:22:40.964Z,63.70
2018-06-30T15:25:10.358Z,62.90
2018-06-30T15:27:40.457Z,63.70
2018-06-30T15:30:10.033Z,64.20
2018-06-30T15:32:39.536Z,64.20
2018-06-30T15:35:09.146Z,64.20
2018-06-30T15:37:38.734Z,63.50
2018-06-30T15:40:08.783Z,62.20
2018-06-30T15:42:38.411Z,60.30
2018-06-30T15:45:09.553Z,58.30
2018-06-30T15:47:39.417Z,58.50
2018-06-30T15:50:08.906Z,58.70
2018-06-30T15:52:38.564Z,58.80
2018-06-30T15:55:08.232Z,60.60
2018-06-30T15:57:38.584Z,59.30
2018-06-30T16:00:08.635Z,60.40
2018-06-30T16:02:37.966Z,65.80
2018-06-30T16:05:07.397Z,62.90
2018-06-30T16:07:37.376Z,64.80
2018-06-30T16:10:06.903Z,63.90
2018-06-30T16:12:37.554Z,63.70
2018-06-30T16:15:07.129Z,66.40
2018-06-30T16:17:37.565Z,61.70
2018-06-30T16:20:07.818Z,63.50
2018-06-30T16:22:37.488Z,63.50
2018-06-30T16:25:07.674Z,62.00
2018-06-30T16:27:37.336Z,60.00
2018-06-30T16:30:08.812Z,59.30
2018-06-30T16:32:38.735Z,59.20
2018-06-30T16:35:08.459Z,59.90
2018-06-30T16:37:39.232Z,60.30
2018-06-30T16:40:08.778Z,62.00
2018-06-30T16:42:38.225Z,60.30
2018-06-30T16:45:08.049Z,59.80
2018-06-30T16:47:37.970Z,59.10
2018-06-30T16:50:08.089Z,58.00
2018-06-30T16:52:37.637Z,57.90
2018-06-30T16:55:07.047Z,58.30
2018-06-30T16:57:36.399Z,58.00
2018-06-30T17:00:07.192Z,57.90
2018-06-30T17:02:36.768Z,58.60
2018-06-30T17:05:06.733Z,58.70
2018-06-30T17:07:36.047Z,59.90
2018-06-30T17:10:05.394Z,58.60
2018-06-30T17:12:35.350Z,58.50
2018-06-30T17:15:04.940Z,58.50
2018-06-30T17:17:34.484Z,58.60
2018-06-30T17:20:04.858Z,58.10
2018-06-30T17:22:34.571Z,59.70
2018-06-30T17:25:04.429Z,60.90
2018-06-30T17:27:34.592Z,61.70
2018-06-30T17:30:04.923Z,61.90
2018-06-30T17:32:34.457Z,61.50
2018-06-30T17:35:04.526Z,61.10
2018-06-30T17:37:34.360Z,64.30
2018-06-30T17:40:03.881Z,64.30
2018-06-30T17:42:33.279Z,63.20
2018-06-30T17:45:03.035Z,63.10
2018-06-30T17:47:33.539Z,65.40
2018-06-30T17:50:03.751Z,62.40
2018-06-30T17:52:33.759Z,60.70
2018-06-30T17:55:03.548Z,62.60
2018-06-30T17:57:33.307Z,62.90
2018-06-30T18:00:02.729Z,59.70
2018-06-30T18:02:32.328Z,61.00
2018-06-30T18:05:02.372Z,58.20
2018-06-30T18:07:32.874Z,63.70
2018-06-30T18:10:02.504Z,64.20
2018-06-30T18:12:31.914Z,62.80
2018-06-30T18:15:01.428Z,63.70
2018-06-30T18:17:31.013Z,62.10
2018-06-30T18:20:01.121Z,62.10
2018-06-30T18:22:30.463Z,61.80
2018-06-30T18:25:00.101Z,60.30
2018-06-30T18:27:29.448Z,60.00
2018-06-30T18:29:58.987Z,60.50
2018-06-30T18:32:28.920Z,59.10
2018-06-30T18:34:58.562Z,62.50
2018-06-30T18:37:28.025Z,60.00
2018-06-30T18:39:58.069Z,59.20
2018-06-30T18:42:27.691Z,58.00
2018-06-30T18:44:57.830Z,58.50
2018-06-30T18:47:28.956Z,61.10
2018-06-30T18:49:58.837Z,57.80
2018-06-30T18:52:28.211Z,61.80
2018-06-30T18:54:57.700Z,61.90
2018-06-30T18:57:27.112Z,62.00
2018-06-30T18:59:57.223Z,59.20
2018-06-30T19:02:27.372Z,62.60
2018-06-30T19:04:56.709Z,60.20
2018-06-30T19:07:26.147Z,60.20
2018-06-30T19:09:55.774Z,60.90
2018-06-30T19:12:25.309Z,60.60
2018-06-30T19:14:54.959Z,63.60
2018-06-30T19:17:24.276Z,64.00
2018-06-30T19:19:53.760Z,61.80
2018-06-30T19:22:23.271Z,62.40
2018-06-30T19:24:52.936Z,59.80
2018-06-30T19:27:22.474Z,65.10
2018-06-30T19:29:52.244Z,66.70
2018-06-30T19:32:21.803Z,67.60
2018-06-30T19:34:52.153Z,66.50
2018-06-30T19:37:21.420Z,66.40
2018-06-30T19:39:50.964Z,67.40
2018-06-30T19:42:20.213Z,64.80
2018-06-30T19:44:49.768Z,65.80
2018-06-30T19:49:49.420Z,66.80
2018-06-30T19:52:19.839Z,66.60
2018-06-30T19:54:49.486Z,67.70
2018-06-30T19:57:19.057Z,66.10
2018-06-30T19:59:48.961Z,70.50
2018-06-30T20:02:18.877Z,69.20
2018-06-30T20:04:48.309Z,70.00
2018-06-30T20:07:18.589Z,68.10
2018-06-30T20:09:48.540Z,68.80
2018-06-30T20:12:18.339Z,68.20
2018-06-30T20:14:47.720Z,70.90
2018-06-30T20:17:17.429Z,72.40
2018-06-30T20:19:47.671Z,72.50
2018-06-30T20:22:17.361Z,72.20
2018-06-30T20:24:47.477Z,71.50
2018-06-30T20:27:17.253Z,72.80
2018-06-30T20:29:46.871Z,70.90
2018-06-30T20:32:16.385Z,73.10
2018-06-30T20:34:46.049Z,69.50
2018-06-30T20:37:15.666Z,70.80
2018-06-30T20:39:45.675Z,70.90
2018-06-30T20:42:15.318Z,71.60
2018-06-30T20:44:45.428Z,73.50
2018-06-30T20:47:14.911Z,73.00
2018-06-30T20:49:44.427Z,71.40
2018-06-30T20:52:14.111Z,72.70
2018-06-30T20:54:43.877Z,74.20
2018-06-30T20:57:13.701Z,72.10
2018-06-30T20:59:43.395Z,75.20
2018-06-30T21:02:13.248Z,79.00
2018-06-30T21:04:42.871Z,74.00
2018-06-30T21:07:12.958Z,73.60
2018-06-30T21:09:43.038Z,76.30
2018-06-30T21:12:12.878Z,77.00
2018-06-30T21:14:42.594Z,78.70
2018-06-30T21:17:12.368Z,78.70
2018-06-30T21:19:42.082Z,80.60
2018-06-30T21:22:11.920Z,78.90
2018-06-30T21:24:41.528Z,78.90
2018-06-30T21:27:10.832Z,79.60
2018-06-30T21:29:40.072Z,78.90
2018-06-30T21:32:09.711Z,80.10
2018-06-30T21:34:39.061Z,80.30
2018-06-30T21:37:08.560Z,79.80
2018-06-30T21:39:38.124Z,80.90
2018-06-30T21:42:07.557Z,80.30
2018-06-30T21:44:37.231Z,80.20
2018-06-30T21:47:06.627Z,83.60
2018-06-30T21:49:36.281Z,81.10
2018-06-30T21:52:06.461Z,86.60
2018-06-30T21:54:36.062Z,86.30
2018-06-30T21:57:06.721Z,85.40
2018-06-30T21:59:36.910Z,87.00
2018-06-30T22:02:08.572Z,88.30
2018-06-30T22:04:39.120Z,86.10
2018-06-30T22:07:08.801Z,89.90
2018-06-30T22:09:38.324Z,86.10
2018-06-30T22:12:08.019Z,87.30
2018-06-30T22:14:37.606Z,90.90
2018-06-30T22:17:08.179Z,90.20
2018-06-30T22:19:37.657Z,90.80
2018-06-30T22:22:07.408Z,93.30
2018-06-30T22:24:37.503Z,90.70
2018-06-30T22:27:07.677Z,90.10
2018-06-30T22:29:37.099Z,91.90
2018-06-30T22:32:06.869Z,91.70
2018-06-30T22:34:36.831Z,92.10
2018-06-30T22:37:07.046Z,92.40
2018-06-30T22:39:47.067Z,92.10
2018-06-30T22:42:16.827Z,93.20
2018-06-30T22:44:46.118Z,93.50
2018-06-30T22:47:16.005Z,92.70
2018-06-30T22:49:46.318Z,94.20
2018-06-30T22:54:45.322Z,92.90
2018-06-30T22:57:14.789Z,93.50
2018-06-30T22:59:44.444Z,92.90
2018-06-30T23:02:14.120Z,93.80
2018-06-30T23:04:43.579Z,95.60
2018-06-30T23:07:13.759Z,94.10
2018-06-30T23:09:43.439Z,95.50
2018-06-30T23:12:13.250Z,95.40
2018-06-30T23:14:43.255Z,95.60
2018-06-30T23:17:13.397Z,95.00
2018-06-30T23:19:42.840Z,95.90
2018-06-30T23:22:12.188Z,95.40
2018-06-30T23:24:41.589Z,96.90
2018-06-30T23:27:10.952Z,96.50
2018-06-30T23:29:40.500Z,96.50
2018-06-30T23:32:10.301Z,96.90
2018-06-30T23:34:39.913Z,97.80
2018-06-30T23:37:09.449Z,97.60
2018-06-30T23:39:38.527Z,98.80
2018-06-30T23:42:08.224Z,99.40
2018-06-30T23:44:37.435Z,97.60
2018-06-30T23:47:07.036Z,98.70
2018-06-30T23:49:36.906Z,98.50
2018-06-30T23:52:06.525Z,99.90
2018-06-30T23:54:36.369Z,99.20
2018-06-30T23:57:05.930Z,99.70
2018-06-30T23:59:35.579Z,99.90
